Time;durP1;ratioP1;P1;durP2;ratioP2;P2;SDS_P1;SDS_P2;PMS_P1;PMS_P2;Temp;Humidity;BMP_temperature;BMP_pressure;BME280_temperature;BME280_humidity;BME280_pressure;Samples;Min_cycle;Max_cycle;Signal;HPM_P1;HPM_P2
2023/09/14 00:01:00;;;;;;;2.45;0.73;;;13.60;78.20;;;;;;5049941;28;20096;-51
2023/09/14 00:03:27;;;;;;;1.60;0.60;;;13.60;78.30;;;;;;5049870;28;20025;-51
2023/09/14 00:05:52;;;;;;;2.63;0.70;;;13.70;78.90;;;;;;5049991;28;20037;-54
2023/09/14 00:08:21;;;;;;;4.35;1.92;;;13.70;78.90;;;;;;5049970;28;20039;-48
2023/09/14 00:10:55;;;;;;;6.10;0.93;;;13.70;79.30;;;;;;5053232;28;20025;-49
2023/09/14 00:13:23;;;;;;;3.92;0.80;;;13.70;78.90;;;;;;5036475;28;20061;-49
2023/09/14 00:15:49;;;;;;;2.53;0.90;;;13.80;79.10;;;;;;5064772;28;20078;-51
2023/09/14 00:18:20;;;;;;;1.85;0.68;;;13.80;79.00;;;;;;5073851;28;20021;-51
2023/09/14 00:20:46;;;;;;;5.13;1.10;;;13.80;78.80;;;;;;5064903;28;20044;-48
2023/09/14 00:23:13;;;;;;;2.22;0.77;;;13.90;78.50;;;;;;5035887;28;20427;-51
2023/09/14 00:25:40;;;;;;;2.90;0.70;;;13.80;78.40;;;;;;5053822;28;20043;-48
2023/09/14 00:28:06;;;;;;;3.55;1.08;;;13.90;78.50;;;;;;5053698;28;20482;-51
2023/09/14 00:30:33;;;;;;;6.05;1.20;;;13.90;78.40;;;;;;5069979;28;20029;-51
2023/09/14 00:33:00;;;;;;;4.32;0.70;;;13.90;78.40;;;;;;5073903;28;20448;-53
2023/09/14 00:35:27;;;;;;;4.05;1.00;;;13.90;78.90;;;;;;5073516;28;20090;-52
2023/09/14 00:37:54;;;;;;;3.13;1.02;;;13.90;78.80;;;;;;5056910;28;20059;-49
2023/09/14 00:40:21;;;;;;;2.08;0.85;;;13.90;78.60;;;;;;5053421;28;20032;-51
2023/09/14 00:42:51;;;;;;;4.50;0.80;;;13.90;78.90;;;;;;5053679;28;20036;-53
2023/09/14 00:45:19;;;;;;;;;;;13.90;79.10;;;;;;5053858;28;20307;-49
2023/09/14 00:47:57;;;;;;;2.92;0.93;;;13.90;79.40;;;;;;5035554;28;19909;-50
2023/09/14 00:50:26;;;;;;;4.45;0.90;;;13.90;79.20;;;;;;5035327;28;20108;-49
2023/09/14 00:52:57;;;;;;;2.78;1.13;;;13.90;79.70;;;;;;5052969;28;20064;-50
2023/09/14 00:55:28;;;;;;;2.97;0.75;;;13.90;79.60;;;;;;5050393;28;20078;-49
2023/09/14 00:57:55;;;;;;;2.30;0.68;;;13.90;79.60;;;;;;5064381;28;20366;-53
2023/09/14 01:00:22;;;;;;;4.40;0.93;;;13.90;79.60;;;;;;5053083;28;20032;-51
2023/09/14 01:02:58;;;;;;;6.28;1.25;;;13.90;79.70;;;;;;5035038;28;20029;-51
2023/09/14 01:05:28;;;;;;;5.95;1.15;;;13.80;79.80;;;;;;5052973;28;20047;-51
2023/09/14 01:07:59;;;;;;;3.70;0.98;;;13.80;80.00;;;;;;5035310;28;20037;-50
2023/09/14 01:10:25;;;;;;;4.38;0.98;;;13.90;80.10;;;;;;5034846;28;20029;-49
2023/09/14 01:12:56;;;;;;;2.83;0.68;;;13.80;80.00;;;;;;5052490;28;20525;-50
2023/09/14 01:15:51;;;;;;;3.50;0.93;;;13.80;79.90;;;;;;5069846;28;20024;-48
2023/09/14 01:18:24;;;;;;;3.47;0.82;;;13.80;79.80;;;;;;5072853;28;20699;-50
2023/09/14 01:21:27;;;;;;;2.50;0.77;;;13.70;80.00;;;;;;5063116;28;20104;-51
2023/09/14 01:24:18;;;;;;;3.20;0.80;;;13.80;80.10;;;;;;5034797;28;20083;-51
2023/09/14 01:26:46;;;;;;;5.28;1.27;;;13.80;80.80;;;;;;5052405;28;20052;-51
2023/09/14 01:29:11;;;;;;;3.30;1.08;;;13.80;80.70;;;;;;5052292;28;20115;-49
2023/09/14 01:31:38;;;;;;;4.28;1.67;;;13.80;80.60;;;;;;5034301;28;20128;-48
2023/09/14 01:34:07;;;;;;;2.78;1.05;;;13.80;80.60;;;;;;5052187;28;20105;-51
2023/09/14 01:36:53;;;;;;;4.38;1.52;;;13.80;80.40;;;;;;5052360;28;20032;-51
2023/09/14 01:39:23;;;;;;;2.90;0.93;;;13.80;80.70;;;;;;5051336;28;20029;-47
2023/09/14 01:41:55;;;;;;;5.22;1.27;;;13.80;80.70;;;;;;5052289;28;20036;-48
2023/09/14 01:44:27;;;;;;;2.20;0.70;;;13.80;80.80;;;;;;5052341;28;20025;-48
2023/09/14 01:46:56;;;;;;;4.57;1.25;;;13.70;81.10;;;;;;5052239;28;20025;-50
2023/09/14 01:49:23;;;;;;;2.67;0.88;;;13.70;81.00;;;;;;5034206;28;20048;-53
2023/09/14 01:51:49;;;;;;;3.25;0.90;;;13.80;80.90;;;;;;5052409;28;20025;-51
2023/09/14 01:54:16;;;;;;;2.38;0.80;;;13.80;81.00;;;;;;5030886;28;20409;-49
2023/09/14 01:56:43;;;;;;;3.58;0.98;;;13.80;81.10;;;;;;5046654;28;20028;-50
2023/09/14 01:59:08;;;;;;;2.28;0.85;;;13.80;81.10;;;;;;5037229;28;20273;-51
2023/09/14 02:01:35;;;;;;;6.63;2.45;;;13.80;81.00;;;;;;5031603;28;20456;-47
2023/09/14 02:04:02;;;;;;;3.38;0.93;;;13.80;81.10;;;;;;5032016;28;20044;-49
2023/09/14 02:06:29;;;;;;;4.03;1.05;;;13.80;81.30;;;;;;5032256;28;20111;-49
2023/09/14 02:08:56;;;;;;;3.80;1.30;;;13.80;81.60;;;;;;5031979;28;20115;-51
2023/09/14 02:11:23;;;;;;;3.63;1.08;;;13.80;81.60;;;;;;5031041;28;20084;-50
2023/09/14 02:13:49;;;;;;;7.55;1.58;;;13.80;81.50;;;;;;5031552;28;20474;-48
2023/09/14 02:16:17;;;;;;;5.03;1.15;;;13.80;81.70;;;;;;5031680;28;20120;-49
2023/09/14 02:18:42;;;;;;;3.63;1.10;;;13.80;81.90;;;;;;5031755;28;20120;-50
2023/09/14 02:21:10;;;;;;;5.25;0.98;;;13.80;81.90;;;;;;5032313;28;20529;-52
2023/09/14 02:23:37;;;;;;;3.05;1.58;;;13.80;81.90;;;;;;5043288;28;20127;-50
2023/09/14 02:26:04;;;;;;;3.90;0.90;;;13.70;82.00;;;;;;5051605;28;20036;-50
2023/09/14 02:28:32;;;;;;;2.75;1.15;;;13.80;82.00;;;;;;5051559;28;20047;-52
2023/09/14 02:31:06;;;;;;;2.97;1.52;;;13.80;82.10;;;;;;5050289;28;20082;-51
2023/09/14 02:33:33;;;;;;;5.43;1.58;;;13.80;82.20;;;;;;5050667;28;20052;-51
2023/09/14 02:36:00;;;;;;;3.47;1.13;;;13.80;82.40;;;;;;5051711;28;20087;-51
2023/09/14 02:38:29;;;;;;;3.42;1.20;;;13.80;82.40;;;;;;5048750;28;20055;-51
2023/09/14 02:40:56;;;;;;;3.75;1.90;;;13.80;82.30;;;;;;5046696;28;20124;-54
2023/09/14 02:43:23;;;;;;;5.53;1.48;;;13.80;82.30;;;;;;5031940;28;20026;-49
2023/09/14 02:45:52;;;;;;;5.03;1.88;;;13.80;82.50;;;;;;5051008;28;20100;-52
2023/09/14 02:48:19;;;;;;;6.32;1.52;;;13.90;82.50;;;;;;5036388;28;20072;-54
2023/09/14 02:50:45;;;;;;;4.30;1.30;;;13.80;82.60;;;;;;5031067;28;20386;-52
2023/09/14 02:53:12;;;;;;;4.75;2.28;;;13.90;82.60;;;;;;5038984;28;20052;-49
2023/09/14 02:55:39;;;;;;;3.63;1.35;;;13.80;82.60;;;;;;5050917;28;20112;-53
2023/09/14 02:58:08;;;;;;;2.42;1.30;;;13.90;82.70;;;;;;5050845;28;20044;-48
2023/09/14 03:00:40;;;;;;;4.70;1.70;;;13.80;82.70;;;;;;5050691;28;20068;-52
2023/09/14 03:03:09;;;;;;;3.75;1.35;;;13.80;82.90;;;;;;5053986;28;20447;-50
2023/09/14 03:05:36;;;;;;;5.97;1.50;;;13.80;83.10;;;;;;5070830;28;20021;-50
2023/09/14 03:08:03;;;;;;;3.20;1.35;;;13.80;83.10;;;;;;5070517;28;20047;-50
2023/09/14 03:10:30;;;;;;;2.97;1.58;;;13.80;83.20;;;;;;5038041;28;20111;-51
2023/09/14 03:12:57;;;;;;;5.28;1.63;;;13.80;83.00;;;;;;5049772;28;20031;-50
2023/09/14 03:15:23;;;;;;;5.70;1.73;;;13.80;82.90;;;;;;5049990;28;20024;-50
2023/09/14 03:17:50;;;;;;;5.22;1.30;;;13.80;83.00;;;;;;5050328;28;20029;-50
2023/09/14 03:20:16;;;;;;;5.90;1.40;;;13.80;83.10;;;;;;5050453;28;20501;-49
2023/09/14 03:22:41;;;;;;;4.03;1.58;;;13.90;83.20;;;;;;5050781;28;20014;-50
2023/09/14 03:25:08;;;;;;;6.50;2.28;;;13.90;83.10;;;;;;5050314;28;20025;-51
2023/09/14 03:27:35;;;;;;;3.50;1.40;;;13.80;83.00;;;;;;5050588;28;20103;-49
2023/09/14 03:30:02;;;;;;;4.47;1.83;;;13.80;83.20;;;;;;5050739;28;20790;-48
2023/09/14 03:32:29;;;;;;;5.38;1.80;;;13.90;83.20;;;;;;5050353;28;20037;-49
2023/09/14 03:34:56;;;;;;;6.60;1.73;;;13.80;83.10;;;;;;5050574;28;20039;-53
2023/09/14 03:37:23;;;;;;;3.70;1.40;;;13.80;83.50;;;;;;5050439;28;20108;-51
2023/09/14 03:39:50;;;;;;;4.60;2.03;;;13.90;83.40;;;;;;5050274;28;20025;-51
2023/09/14 03:42:18;;;;;;;3.22;1.40;;;13.90;83.50;;;;;;5050260;28;20061;-50
2023/09/14 03:44:44;;;;;;;5.82;1.35;;;13.90;83.50;;;;;;5071938;28;20040;-53
2023/09/14 03:47:14;;;;;;;6.05;1.58;;;13.90;83.60;;;;;;5074381;28;20025;-53
2023/09/14 03:49:40;;;;;;;4.93;1.60;;;13.90;83.50;;;;;;5064198;28;20025;-49
2023/09/14 03:52:06;;;;;;;5.63;1.77;;;13.90;83.40;;;;;;5054350;28;20056;-48
2023/09/14 03:54:33;;;;;;;4.28;1.80;;;13.90;83.10;;;;;;5053996;28;20084;-50
2023/09/14 03:56:59;;;;;;;3.88;1.77;;;13.80;82.70;;;;;;5054199;28;20021;-50
2023/09/14 03:59:25;;;;;;;12.30;1.95;;;13.80;82.40;;;;;;5054172;28;20450;-53
2023/09/14 04:01:58;;;;;;;4.00;1.30;;;13.80;82.40;;;;;;5054381;28;20036;-51
2023/09/14 04:04:26;;;;;;;5.35;1.48;;;13.80;82.50;;;;;;5054245;28;20028;-51
2023/09/14 04:06:53;;;;;;;4.55;1.38;;;13.80;82.30;;;;;;5047019;28;20048;-50
2023/09/14 04:09:19;;;;;;;4.43;1.52;;;13.90;82.30;;;;;;5056452;28;20020;-49
2023/09/14 04:11:47;;;;;;;3.40;1.38;;;13.80;82.20;;;;;;5055614;28;20020;-51
2023/09/14 04:14:12;;;;;;;2.22;1.05;;;13.90;82.20;;;;;;5054201;28;20017;-51
2023/09/14 04:16:41;;;;;;;4.72;1.95;;;13.80;82.50;;;;;;5053822;28;20492;-52
2023/09/14 04:19:08;;;;;;;3.35;1.23;;;13.80;82.70;;;;;;5054006;28;20028;-49
2023/09/14 04:21:34;;;;;;;3.08;1.30;;;13.80;82.50;;;;;;5054069;28;20032;-49
2023/09/14 04:24:01;;;;;;;3.65;1.20;;;13.80;82.20;;;;;;5035911;28;20430;-49
2023/09/14 04:26:28;;;;;;;2.67;1.05;;;13.80;82.30;;;;;;5053744;28;20048;-51
2023/09/14 04:28:57;;;;;;;4.57;1.55;;;13.80;82.10;;;;;;5053842;28;20040;-53
2023/09/14 04:31:25;;;;;;;3.53;1.27;;;13.80;82.20;;;;;;5053489;28;20147;-51
2023/09/14 04:33:52;;;;;;;4.18;1.20;;;13.80;82.10;;;;;;5053498;28;20021;-54
2023/09/14 04:36:18;;;;;;;6.03;1.30;;;13.80;82.30;;;;;;5035613;28;20036;-51
2023/09/14 04:38:45;;;;;;;2.80;1.27;;;13.80;82.30;;;;;;5035968;28;20103;-50
2023/09/14 04:41:15;;;;;;;4.53;1.35;;;13.80;82.40;;;;;;5052454;28;20035;-52
2023/09/14 04:43:42;;;;;;;5.72;1.70;;;13.80;82.30;;;;;;5062506;28;20350;-48
2023/09/14 04:46:08;;;;;;;3.65;1.27;;;13.80;82.20;;;;;;5073416;28;20093;-50
2023/09/14 04:48:41;;;;;;;3.70;1.50;;;13.80;81.80;;;;;;5073387;28;20047;-51
2023/09/14 04:51:07;;;;;;;4.55;1.00;;;13.80;82.20;;;;;;5069804;28;20089;-49
2023/09/14 04:53:34;;;;;;;6.07;1.60;;;13.80;82.30;;;;;;5051588;28;20482;-54
2023/09/14 04:56:00;;;;;;;4.95;2.35;;;13.80;82.10;;;;;;5052005;28;20041;-50
2023/09/14 04:58:27;;;;;;;2.72;1.27;;;13.80;82.00;;;;;;5052327;28;20024;-50
2023/09/14 05:00:54;;;;;;;9.07;1.35;;;13.70;81.90;;;;;;5053340;28;20013;-52
2023/09/14 05:03:21;;;;;;;4.57;1.70;;;13.70;81.90;;;;;;5053415;28;20021;-49
2023/09/14 05:05:53;;;;;;;2.92;1.45;;;13.70;82.00;;;;;;5052933;28;20100;-50
2023/09/14 05:08:21;;;;;;;3.92;1.08;;;13.70;82.00;;;;;;5067218;28;20476;-52
2023/09/14 05:10:51;;;;;;;5.80;2.35;;;13.80;82.00;;;;;;5072679;28;20100;-49
2023/09/14 05:13:20;;;;;;;6.68;1.55;;;13.70;81.90;;;;;;5060979;28;20021;-51
2023/09/14 05:15:47;;;;;;;3.55;1.70;;;13.60;81.80;;;;;;5052861;28;20502;-52
2023/09/14 05:18:13;;;;;;;4.40;1.27;;;13.70;82.30;;;;;;5052880;28;20037;-49
2023/09/14 05:20:43;;;;;;;3.38;1.27;;;13.70;82.40;;;;;;5052693;28;20025;-48
2023/09/14 05:23:10;;;;;;;3.40;1.33;;;13.70;82.10;;;;;;5053222;28;20032;-47
2023/09/14 05:25:37;;;;;;;5.75;2.10;;;13.70;82.40;;;;;;5052822;28;20332;-53
2023/09/14 05:28:05;;;;;;;4.63;1.83;;;13.70;82.50;;;;;;5052676;28;20115;-50
2023/09/14 05:30:32;;;;;;;5.20;1.50;;;13.70;82.60;;;;;;5035157;28;20115;-51
2023/09/14 05:32:59;;;;;;;4.28;1.50;;;13.70;82.80;;;;;;5052516;28;20030;-52
2023/09/14 05:35:26;;;;;;;3.80;1.45;;;13.70;83.10;;;;;;5052239;28;20163;-50
2023/09/14 05:37:53;;;;;;;4.45;1.58;;;13.80;83.10;;;;;;5034874;28;20051;-50
2023/09/14 05:40:20;;;;;;;4.78;1.60;;;13.70;83.00;;;;;;5051943;28;20021;-51
2023/09/14 05:42:47;;;;;;;5.20;1.42;;;13.70;83.10;;;;;;5052490;28;20021;-47
2023/09/14 05:45:13;;;;;;;5.13;1.80;;;13.80;83.30;;;;;;5052085;28;20108;-49
2023/09/14 05:47:40;;;;;;;5.57;1.35;;;13.80;83.50;;;;;;5051154;28;20029;-51
2023/09/14 05:50:07;;;;;;;5.60;2.00;;;13.80;83.50;;;;;;5051923;28;20438;-51
2023/09/14 05:52:35;;;;;;;4.05;1.40;;;13.90;83.30;;;;;;5051404;28;20049;-51
2023/09/14 05:55:05;;;;;;;2.85;1.17;;;13.80;83.40;;;;;;5051638;28;20025;-51
2023/09/14 05:57:32;;;;;;;3.58;1.90;;;13.90;83.50;;;;;;5051662;28;20021;-50
2023/09/14 06:00:00;;;;;;;7.68;1.33;;;13.90;83.30;;;;;;5051724;28;20021;-50
2023/09/14 06:02:26;;;;;;;4.03;1.42;;;13.90;83.10;;;;;;5051593;28;20032;-48
2023/09/14 06:04:53;;;;;;;3.53;1.23;;;13.90;82.80;;;;;;5051212;28;20025;-50
2023/09/14 06:07:19;;;;;;;4.82;1.38;;;14.00;82.60;;;;;;5050851;28;20037;-51
2023/09/14 06:09:45;;;;;;;7.78;2.55;;;14.00;82.30;;;;;;5066703;28;20032;-51
2023/09/14 06:12:12;;;;;;;3.80;1.40;;;14.10;81.90;;;;;;5071171;28;20342;-48
2023/09/14 06:14:39;;;;;;;5.95;1.05;;;14.10;81.70;;;;;;5070375;28;20692;-48
2023/09/14 06:17:05;;;;;;;4.72;1.67;;;14.20;81.50;;;;;;5033891;28;20021;-49
2023/09/14 06:19:31;;;;;;;4.38;1.52;;;14.20;81.60;;;;;;5051101;28;20036;-51
2023/09/14 06:21:58;;;;;;;3.83;1.48;;;14.30;81.40;;;;;;5050912;28;20021;-51
2023/09/14 06:24:24;;;;;;;3.45;1.00;;;14.30;81.70;;;;;;5050578;28;20458;-51
2023/09/14 06:26:51;;;;;;;4.88;1.40;;;14.40;81.60;;;;;;5051397;28;20035;-48
2023/09/14 06:29:18;;;;;;;2.47;0.90;;;14.40;81.40;;;;;;5070952;28;20508;-48
2023/09/14 06:31:45;;;;;;;6.80;1.83;;;14.50;81.50;;;;;;5053174;28;20040;-49
2023/09/14 06:34:11;;;;;;;2.92;1.20;;;14.50;81.40;;;;;;5070822;28;20021;-51
2023/09/14 06:36:38;;;;;;;3.28;1.10;;;14.60;81.10;;;;;;5068795;28;20034;-51
2023/09/14 06:39:04;;;;;;;3.47;1.08;;;14.60;81.10;;;;;;5050546;28;20029;-48
2023/09/14 06:41:34;;;;;;;2.13;1.00;;;14.70;80.60;;;;;;5050480;28;20118;-51
2023/09/14 06:44:01;;;;;;;;;;;14.80;80.60;;;;;;5050558;28;20032;-54
2023/09/14 06:46:28;;;;;;;3.47;1.48;;;14.90;80.50;;;;;;5050549;28;19916;-48
2023/09/14 06:48:54;;;;;;;3.60;1.20;;;14.90;80.00;;;;;;5050325;28;20428;-50
2023/09/14 06:51:20;;;;;;;2.65;1.13;;;14.90;79.30;;;;;;5050706;28;20118;-48
2023/09/14 06:53:47;;;;;;;3.95;1.40;;;15.00;79.40;;;;;;5050184;28;20076;-50
2023/09/14 06:56:15;;;;;;;3.78;1.15;;;15.00;78.60;;;;;;5050654;28;20040;-50
2023/09/14 06:58:42;;;;;;;3.25;0.98;;;15.10;77.90;;;;;;5050408;28;20017;-47
2023/09/14 07:01:08;;;;;;;4.72;1.58;;;15.20;78.00;;;;;;5016091;28;20142;-50
2023/09/14 07:03:35;;;;;;;5.22;1.00;;;15.30;77.30;;;;;;5050282;28;20037;-55
2023/09/14 07:06:02;;;;;;;2.25;0.90;;;15.30;78.00;;;;;;5050317;28;20075;-52
2023/09/14 07:08:29;;;;;;;5.25;1.27;;;15.40;78.30;;;;;;5050247;28;20082;-53
2023/09/14 07:10:58;;;;;;;5.38;1.17;;;15.60;78.30;;;;;;5050304;28;20032;-50
2023/09/14 07:13:25;;;;;;;4.18;1.27;;;15.70;78.10;;;;;;5050239;28;20098;-49
2023/09/14 07:15:52;;;;;;;3.70;1.02;;;15.70;77.90;;;;;;5055544;28;20107;-52
2023/09/14 07:18:29;;;;;;;2.78;0.80;;;15.90;77.90;;;;;;5070091;28;20016;-51
2023/09/14 07:20:58;;;;;;;3.75;1.17;;;15.90;77.80;;;;;;5056387;28;20025;-53
2023/09/14 07:23:25;;;;;;;4.25;1.08;;;16.00;77.50;;;;;;5032187;28;20110;-52
2023/09/14 07:25:52;;;;;;;4.47;1.15;;;16.00;76.30;;;;;;5050488;28;20458;-50
2023/09/14 07:28:20;;;;;;;3.17;1.08;;;16.20;76.30;;;;;;5059070;28;20040;-51
2023/09/14 07:30:49;;;;;;;4.80;0.90;;;16.20;75.90;;;;;;5069981;28;20404;-50
2023/09/14 07:33:17;;;;;;;3.92;1.20;;;16.40;75.10;;;;;;5052228;28;20051;-53
2023/09/14 07:35:45;;;;;;;3.72;1.02;;;16.40;74.80;;;;;;5061177;28;20029;-55
2023/09/14 07:38:12;;;;;;;3.47;1.48;;;16.60;75.10;;;;;;5050110;28;20024;-49
2023/09/14 07:40:39;;;;;;;3.45;0.88;;;16.70;74.80;;;;;;5049808;28;20025;-48
2023/09/14 07:43:05;;;;;;;4.90;1.55;;;16.80;73.20;;;;;;5059930;28;20053;-51
2023/09/14 07:45:37;;;;;;;3.63;1.30;;;16.90;73.90;;;;;;5068750;28;20029;-52
2023/09/14 07:48:06;;;;;;;3.92;1.23;;;17.10;74.30;;;;;;5049060;28;20060;-54
2023/09/14 07:50:39;;;;;;;5.80;1.35;;;17.30;73.80;;;;;;5049844;28;20043;-52
2023/09/14 07:53:07;;;;;;;7.15;1.48;;;17.40;73.00;;;;;;5049367;28;20049;-50
2023/09/14 07:55:33;;;;;;;3.70;1.15;;;17.30;71.40;;;;;;5069614;28;20032;-54
2023/09/14 07:58:00;;;;;;;4.70;1.55;;;17.40;71.20;;;;;;5055829;28;20036;-51
2023/09/14 08:00:26;;;;;;;3.22;1.20;;;17.40;71.50;;;;;;5049839;28;20784;-48
2023/09/14 08:02:54;;;;;;;3.15;1.10;;;17.40;70.10;;;;;;5032368;28;20021;-50
2023/09/14 08:05:21;;;;;;;5.75;1.38;;;17.40;71.30;;;;;;5031963;28;20044;-52
2023/09/14 08:07:48;;;;;;;4.22;1.17;;;17.40;70.40;;;;;;5049627;28;20113;-54
2023/09/14 08:10:15;;;;;;;3.55;1.20;;;17.40;69.70;;;;;;5049613;28;20048;-53
2023/09/14 08:12:42;;;;;;;2.58;0.90;;;17.40;69.70;;;;;;5049236;28;20037;-52
2023/09/14 08:15:11;;;;;;;2.85;0.95;;;17.40;69.90;;;;;;5049655;28;20025;-53
2023/09/14 08:17:38;;;;;;;4.82;1.30;;;17.40;69.40;;;;;;5049585;28;20024;-51
2023/09/14 08:20:05;;;;;;;4.43;0.82;;;17.40;69.40;;;;;;5049729;28;20083;-53
2023/09/14 08:22:32;;;;;;;2.72;0.70;;;17.80;70.90;;;;;;5028117;28;20124;-53
2023/09/14 08:25:00;;;;;;;5.40;1.65;;;18.30;68.70;;;;;;5049030;28;20024;-49
2023/09/14 08:27:33;;;;;;;6.03;1.10;;;18.90;69.00;;;;;;5049195;28;20017;-51
2023/09/14 08:30:02;;;;;;;6.20;1.33;;;19.40;62.90;;;;;;5050008;28;20096;-52
2023/09/14 08:32:29;;;;;;;3.65;0.90;;;19.50;59.10;;;;;;5053501;28;20119;-51
2023/09/14 08:34:58;;;;;;;3.72;1.45;;;19.90;61.80;;;;;;5053139;28;20087;-53
2023/09/14 08:37:25;;;;;;;3.88;1.25;;;20.10;61.10;;;;;;5053250;28;20025;-50
2023/09/14 08:39:51;;;;;;;8.15;1.35;;;20.20;60.40;;;;;;5053790;28;20092;-52
2023/09/14 08:42:23;;;;;;;2.92;0.80;;;20.20;58.40;;;;;;5053418;28;20052;-50
2023/09/14 08:44:52;;;;;;;3.80;1.27;;;20.20;57.80;;;;;;5053346;28;20107;-53
2023/09/14 08:47:21;;;;;;;4.57;1.10;;;20.10;57.00;;;;;;5053435;28;20029;-51
2023/09/14 08:49:50;;;;;;;4.50;1.10;;;20.20;56.90;;;;;;5052790;28;20021;-52
2023/09/14 08:52:18;;;;;;;4.13;1.10;;;20.40;58.40;;;;;;5052551;28;20041;-54
2023/09/14 08:54:44;;;;;;;2.92;0.98;;;20.60;58.50;;;;;;5032734;28;20092;-51
2023/09/14 08:57:12;;;;;;;5.25;1.27;;;20.70;56.80;;;;;;5032847;28;20022;-52
2023/09/14 08:59:39;;;;;;;4.75;1.33;;;20.80;55.60;;;;;;5033384;28;20025;-54
2023/09/14 09:02:10;;;;;;;3.58;1.00;;;20.90;56.80;;;;;;5047360;28;20445;-49
2023/09/14 09:04:40;;;;;;;4.97;1.08;;;20.70;55.10;;;;;;5052688;28;20032;-50
2023/09/14 09:07:08;;;;;;;6.57;1.50;;;20.40;56.50;;;;;;5050141;28;20025;-51
2023/09/14 09:09:36;;;;;;;16.92;1.58;;;20.30;57.80;;;;;;5033229;28;20433;-50
2023/09/14 09:12:03;;;;;;;5.63;1.10;;;20.10;55.70;;;;;;5032792;28;20021;-53
2023/09/14 09:14:31;;;;;;;4.97;1.40;;;20.30;56.70;;;;;;5032893;28;20534;-51
2023/09/14 09:17:01;;;;;;;6.43;2.47;;;20.30;58.20;;;;;;5015461;28;20099;-52
2023/09/14 09:19:28;;;;;;;8.93;1.63;;;20.40;56.90;;;;;;5033229;28;20025;-53
2023/09/14 09:21:55;;;;;;;4.47;1.13;;;20.40;56.20;;;;;;5032061;28;20021;-52
2023/09/14 09:24:27;;;;;;;3.55;1.42;;;20.60;55.60;;;;;;5014668;28;20033;-50
2023/09/14 09:26:58;;;;;;;4.28;0.93;;;20.70;55.20;;;;;;5032504;28;20021;-55
2023/09/14 09:29:26;;;;;;;5.80;1.42;;;20.70;56.20;;;;;;5032862;28;20741;-52
2023/09/14 09:31:53;;;;;;;4.70;1.35;;;20.70;56.10;;;;;;5032225;28;20025;-52
2023/09/14 09:34:33;;;;;;;4.10;0.98;;;20.50;55.90;;;;;;5041645;28;20469;-49
2023/09/14 09:37:00;;;;;;;;;;;20.40;54.60;;;;;;5050653;28;20454;-50
2023/09/14 09:39:27;;;;;;;4.75;1.40;;;20.40;56.60;;;;;;5032309;28;19944;-49
2023/09/14 09:41:53;;;;;;;6.97;1.70;;;20.40;56.00;;;;;;5031090;28;20030;-52
2023/09/14 09:44:27;;;;;;;4.75;1.67;;;20.00;54.80;;;;;;5032367;28;20439;-54
2023/09/14 09:46:57;;;;;;;5.03;1.75;;;20.10;58.60;;;;;;5015134;28;20532;-51
2023/09/14 09:49:23;;;;;;;4.70;1.65;;;20.40;59.70;;;;;;5015066;28;20025;-51
2023/09/14 09:51:51;;;;;;;4.28;1.58;;;20.80;57.40;;;;;;5032854;28;20032;-53
2023/09/14 09:54:26;;;;;;;9.18;1.90;;;20.70;56.50;;;;;;5031954;28;20049;-50
2023/09/14 09:56:53;;;;;;;9.35;1.75;;;20.90;57.70;;;;;;5032298;28;20060;-49
2023/09/14 09:59:25;;;;;;;5.78;2.03;;;21.30;56.00;;;;;;5031696;28;20028;-54
2023/09/14 10:01:51;;;;;;;5.82;1.38;;;21.50;55.00;;;;;;5032097;28;20033;-51
2023/09/14 10:04:18;;;;;;;5.97;1.50;;;21.80;54.90;;;;;;5032325;28;20018;-53
2023/09/14 10:06:55;;;;;;;4.03;1.52;;;21.90;52.40;;;;;;5031951;28;20039;-56
2023/09/14 10:09:24;;;;;;;4.72;1.67;;;21.70;50.70;;;;;;5031898;28;20026;-52
2023/09/14 10:11:57;;;;;;;5.50;2.40;;;21.40;53.70;;;;;;5014268;28;20029;-54
2023/09/14 10:14:27;;;;;;;7.35;2.15;;;21.50;54.10;;;;;;5031534;28;20381;-52
2023/09/14 10:16:55;;;;;;;3.47;1.20;;;21.60;54.20;;;;;;5031521;28;20028;-50
2023/09/14 10:19:24;;;;;;;4.80;1.60;;;21.60;54.20;;;;;;5031618;28;20030;-52
2023/09/14 10:21:54;;;;;;;4.13;1.80;;;21.60;53.50;;;;;;5027829;28;20405;-50
2023/09/14 10:24:23;;;;;;;3.85;1.48;;;21.80;51.90;;;;;;5051868;28;20086;-55
2023/09/14 10:26:52;;;;;;;4.77;2.37;;;21.80;53.10;;;;;;5051824;28;20029;-54
2023/09/14 10:29:20;;;;;;;4.32;1.85;;;22.10;53.50;;;;;;5034688;28;20473;-49
2023/09/14 10:31:48;;;;;;;4.40;1.60;;;21.90;52.20;;;;;;5031470;28;20074;-52
2023/09/14 10:34:17;;;;;;;5.47;1.17;;;22.10;53.20;;;;;;5031647;28;20089;-50
2023/09/14 10:36:46;;;;;;;4.37;1.30;;;21.60;49.80;;;;;;5031086;28;20342;-54
2023/09/14 10:39:17;;;;;;;2.95;1.13;;;21.40;53.20;;;;;;5044505;28;20029;-54
2023/09/14 10:41:45;;;;;;;6.38;1.58;;;21.60;52.90;;;;;;5051112;28;20742;-53
2023/09/14 10:44:13;;;;;;;3.47;1.33;;;22.00;52.90;;;;;;5035540;28;20112;-52
2023/09/14 10:46:43;;;;;;;2.90;1.27;;;22.00;50.30;;;;;;5031273;28;20021;-51
2023/09/14 10:49:10;;;;;;;3.35;1.20;;;22.20;52.30;;;;;;5031406;28;20191;-52
2023/09/14 10:51:37;;;;;;;3.25;0.93;;;22.20;50.80;;;;;;5031544;28;20120;-53
2023/09/14 10:54:05;;;;;;;4.15;1.23;;;22.20;51.70;;;;;;5016406;28;20057;-54
2023/09/14 10:56:33;;;;;;;4.88;1.17;;;22.10;49.10;;;;;;5011314;28;20036;-51
2023/09/14 10:59:09;;;;;;;2.33;0.95;;;21.70;50.20;;;;;;5011237;28;20087;-51
2023/09/14 11:01:47;;;;;;;4.45;1.40;;;21.30;51.30;;;;;;5011339;28;20116;-52
2023/09/14 11:04:17;;;;;;;4.78;0.93;;;21.40;53.10;;;;;;5011293;28;20029;-53
2023/09/14 11:07:04;;;;;;;3.03;1.13;;;21.50;51.70;;;;;;5011972;28;20455;-53
2023/09/14 11:09:29;;;;;;;3.20;1.02;;;21.70;50.70;;;;;;4993742;28;20360;-54
2023/09/14 11:11:55;;;;;;;5.00;1.60;;;21.80;49.10;;;;;;5011068;28;20030;-51
2023/09/14 11:14:24;;;;;;;5.35;1.10;;;21.80;49.60;;;;;;5011455;28;20097;-52
2023/09/14 11:17:19;;;;;;;4.30;1.05;;;21.70;50.70;;;;;;5011526;28;20463;-50
2023/09/14 11:19:48;;;;;;;3.20;1.40;;;21.40;51.50;;;;;;5011456;28;20080;-53
2023/09/14 11:22:20;;;;;;;2.90;1.00;;;20.70;52.30;;;;;;5011161;28;20030;-51
2023/09/14 11:24:48;;;;;;;4.10;1.00;;;20.60;52.90;;;;;;5011277;28;20092;-49
2023/09/14 11:27:18;;;;;;;1.98;0.77;;;20.40;52.30;;;;;;5011180;28;20034;-52
2023/09/14 11:29:46;;;;;;;2.47;0.98;;;20.30;53.40;;;;;;5011298;28;20356;-52
2023/09/14 11:32:22;;;;;;;5.05;1.15;;;20.10;51.90;;;;;;5011378;28;20030;-51
2023/09/14 11:34:49;;;;;;;3.22;1.20;;;19.90;52.70;;;;;;5011263;28;20037;-53
2023/09/14 11:37:16;;;;;;;2.58;1.08;;;20.10;53.40;;;;;;4993749;28;20034;-52
2023/09/14 11:39:52;;;;;;;2.95;1.00;;;20.20;54.50;;;;;;5011084;28;20390;-51
2023/09/14 11:42:19;;;;;;;2.33;0.68;;;20.30;52.80;;;;;;4994029;28;20049;-50
2023/09/14 11:44:53;;;;;;;3.35;1.33;;;20.30;52.30;;;;;;5011158;28;20022;-54
2023/09/14 11:47:21;;;;;;;3.28;1.30;;;19.90;51.70;;;;;;5010705;28;20110;-48
2023/09/14 11:49:51;;;;;;;3.55;1.05;;;19.80;53.20;;;;;;4993438;28;20033;-52
2023/09/14 11:52:22;;;;;;;1.60;0.57;;;19.80;54.00;;;;;;5010281;28;20037;-53
2023/09/14 11:54:51;;;;;;;2.25;0.85;;;19.80;54.50;;;;;;5029300;28;20045;-49
2023/09/14 11:57:25;;;;;;;3.22;1.08;;;19.90;53.20;;;;;;5030524;28;20013;-49
2023/09/14 11:59:52;;;;;;;2.22;0.70;;;20.20;53.10;;;;;;5030326;28;20423;-48
2023/09/14 12:02:18;;;;;;;3.58;0.93;;;20.50;53.90;;;;;;5031772;28;20104;-55
2023/09/14 12:04:48;;;;;;;3.40;1.10;;;20.80;53.30;;;;;;5032858;28;20025;-53
2023/09/14 12:07:16;;;;;;;2.88;0.70;;;20.90;51.70;;;;;;5053618;28;20044;-53
2023/09/14 12:09:43;;;;;;;3.63;0.95;;;20.60;52.00;;;;;;5046324;28;20033;-51
2023/09/14 12:12:23;;;;;;;3.67;1.20;;;20.80;53.40;;;;;;5032976;28;20037;-49
2023/09/14 12:14:50;;;;;;;4.50;0.85;;;20.80;52.20;;;;;;5034131;28;20099;-51
2023/09/14 12:17:35;;;;;;;4.20;1.45;;;21.10;53.40;;;;;;5034172;28;20017;-53
2023/09/14 12:20:03;;;;;;;2.53;0.77;;;21.30;51.70;;;;;;5033879;28;20108;-49
2023/09/14 12:22:31;;;;;;;3.50;1.00;;;21.30;51.40;;;;;;5033778;28;20064;-52
2023/09/14 12:25:03;;;;;;;4.43;1.25;;;21.00;52.10;;;;;;5033825;28;20018;-50
2023/09/14 12:27:32;;;;;;;4.57;1.25;;;20.90;53.50;;;;;;5016583;28;20037;-52
2023/09/14 12:29:59;;;;;;;5.05;1.23;;;20.90;53.00;;;;;;5038737;28;20083;-49
2023/09/14 12:32:26;;;;;;;4.35;0.90;;;20.90;53.00;;;;;;5053442;28;20819;-51
2023/09/14 12:34:52;;;;;;;2.28;0.85;;;20.60;51.60;;;;;;5045802;28;20104;-56
2023/09/14 12:37:21;;;;;;;4.53;0.98;;;20.40;54.10;;;;;;5033724;28;20033;-51
2023/09/14 12:39:51;;;;;;;3.73;1.00;;;19.90;52.90;;;;;;5034019;28;20397;-50
2023/09/14 12:42:24;;;;;;;4.25;1.10;;;19.60;54.10;;;;;;5033384;28;20596;-50
2023/09/14 12:44:53;;;;;;;4.72;1.20;;;19.50;54.60;;;;;;5033494;28;20040;-50
2023/09/14 12:47:20;;;;;;;4.55;1.15;;;19.30;53.70;;;;;;5033541;28;20026;-54
2023/09/14 12:49:47;;;;;;;3.35;1.40;;;19.40;54.80;;;;;;5033562;28;20039;-50
2023/09/14 12:52:19;;;;;;;4.63;1.17;;;19.40;55.70;;;;;;5041942;28;20028;-50
2023/09/14 12:54:46;;;;;;;3.45;0.95;;;19.30;54.40;;;;;;5033425;28;20120;-53